createdAt,value
2022-11-23T00:00:28.737Z,9.20
2022-11-23T00:03:17.299Z,8.05
2022-11-23T00:06:02.975Z,7.88
2022-11-23T00:08:49.528Z,7.43
2022-11-23T00:11:35.939Z,10.95
2022-11-23T00:14:21.567Z,12.82
2022-11-23T00:17:06.962Z,8.93
2022-11-23T00:19:52.536Z,9.05
2022-11-23T00:22:37.897Z,5.15
2022-11-23T00:25:23.428Z,7.50
2022-11-23T00:28:09.036Z,9.38
2022-11-23T00:30:54.485Z,7.75
2022-11-23T00:33:40.218Z,12.00
2022-11-23T00:36:27.505Z,7.47
2022-11-23T00:39:13.371Z,8.18
2022-11-23T00:41:59.059Z,7.90
2022-11-23T00:44:44.513Z,8.38
2022-11-23T00:47:30.349Z,7.30
2022-11-23T00:50:16.437Z,9.65
2022-11-23T00:53:02.255Z,6.97
2022-11-23T00:55:54.830Z,10.48
2022-11-23T00:58:40.895Z,12.38
2022-11-23T01:01:33.884Z,7.30
2022-11-23T01:04:19.841Z,10.00
2022-11-23T01:07:05.578Z,10.00
2022-11-23T01:09:50.937Z,7.40
2022-11-23T01:12:39.202Z,10.50
2022-11-23T01:15:24.913Z,12.10
2022-11-23T01:18:10.496Z,4.78
2022-11-23T01:20:55.993Z,5.50
2022-11-23T01:23:41.648Z,6.13
2022-11-23T01:26:27.029Z,7.85
2022-11-23T01:29:13.037Z,8.50
2022-11-23T01:31:58.624Z,10.13
2022-11-23T01:34:43.901Z,8.80
2022-11-23T01:37:29.794Z,6.63
2022-11-23T01:40:15.741Z,12.48
2022-11-23T01:43:01.510Z,7.10
2022-11-23T01:45:53.225Z,12.45
2022-11-23T01:48:44.776Z,12.38
2022-11-23T01:51:53.041Z,9.30
2022-11-23T01:54:48.587Z,7.47
2022-11-23T01:57:42.458Z,7.43
2022-11-23T02:00:29.306Z,10.88
2022-11-23T02:03:15.223Z,9.05
2022-11-23T02:06:04.038Z,6.55
2022-11-23T02:08:50.444Z,11.50
2022-11-23T02:11:36.208Z,5.78
2022-11-23T02:14:23.505Z,8.43
2022-11-23T02:17:09.623Z,8.60
2022-11-23T02:20:14.250Z,7.05
2022-11-23T02:23:30.857Z,7.70
2022-11-23T02:26:26.038Z,8.77
2022-11-23T02:29:33.638Z,10.07
2022-11-23T02:32:24.951Z,6.93
2022-11-23T02:35:12.418Z,5.50
2022-11-23T02:37:59.367Z,7.60
2022-11-23T02:40:45.216Z,5.75
2022-11-23T02:43:30.958Z,7.70
2022-11-23T02:46:16.367Z,5.38
2022-11-23T02:49:01.994Z,4.70
2022-11-23T02:51:47.705Z,8.90
2022-11-23T02:54:33.390Z,6.75
2022-11-23T02:57:19.133Z,10.57
2022-11-23T03:00:05.546Z,10.10
2022-11-23T03:02:51.686Z,8.45
2022-11-23T03:05:37.234Z,5.40
2022-11-23T03:08:22.940Z,8.85
2022-11-23T03:11:08.572Z,8.35
2022-11-23T03:13:54.312Z,8.23
2022-11-23T03:16:40.206Z,11.57
2022-11-23T03:19:25.560Z,10.80
2022-11-23T03:22:11.073Z,9.77
2022-11-23T03:24:57.613Z,9.57
2022-11-23T03:27:43.309Z,7.63
2022-11-23T03:30:29.215Z,9.77
2022-11-23T03:33:14.635Z,6.85
2022-11-23T03:36:00.183Z,6.00
2022-11-23T03:38:45.899Z,7.03
2022-11-23T03:41:31.461Z,9.27
2022-11-23T03:44:17.071Z,9.27
2022-11-23T03:47:02.430Z,11.60
2022-11-23T03:49:48.368Z,10.82
2022-11-23T03:52:33.950Z,10.35
2022-11-23T03:55:19.354Z,12.65
2022-11-23T03:58:04.927Z,9.13
2022-11-23T04:00:50.397Z,6.53
2022-11-23T04:03:35.889Z,7.78
2022-11-23T04:06:21.320Z,9.18
2022-11-23T04:09:06.773Z,4.18
2022-11-23T04:11:52.726Z,9.48
2022-11-23T04:14:38.399Z,6.47
2022-11-23T04:17:23.926Z,9.55
2022-11-23T04:20:09.808Z,6.72
2022-11-23T04:22:55.353Z,8.57
2022-11-23T04:25:40.974Z,6.78
2022-11-23T04:28:26.220Z,4.55
2022-11-23T04:31:11.762Z,9.27
2022-11-23T04:33:57.382Z,11.50
2022-11-23T04:36:43.030Z,5.38
2022-11-23T04:39:28.471Z,8.30
2022-11-23T04:42:13.921Z,6.03
2022-11-23T04:44:59.485Z,6.03
2022-11-23T04:47:45.143Z,7.70
2022-11-23T04:50:30.648Z,10.05
2022-11-23T04:53:16.033Z,12.02
2022-11-23T04:56:01.222Z,9.00
2022-11-23T04:58:46.799Z,8.77
2022-11-23T05:01:32.345Z,8.82
2022-11-23T05:04:19.140Z,6.05
2022-11-23T05:07:04.708Z,9.05
2022-11-23T05:09:50.173Z,7.50
2022-11-23T05:12:36.532Z,6.00
2022-11-23T05:15:22.633Z,8.55
2022-11-23T05:18:08.424Z,8.63
2022-11-23T05:20:53.886Z,7.95
2022-11-23T05:23:39.299Z,8.30
2022-11-23T05:26:24.747Z,8.52
2022-11-23T05:29:10.209Z,6.03
2022-11-23T05:31:55.532Z,5.72
2022-11-23T05:34:41.173Z,5.35
2022-11-23T05:37:26.519Z,10.05
2022-11-23T05:40:12.726Z,5.60
2022-11-23T05:42:58.619Z,8.98
2022-11-23T05:45:44.581Z,6.63
2022-11-23T05:48:30.419Z,6.68
2022-11-23T05:51:15.925Z,6.68
2022-11-23T05:54:02.225Z,8.43
2022-11-23T05:56:47.938Z,6.22
2022-11-23T05:59:33.694Z,6.30
2022-11-23T06:02:19.747Z,6.88
2022-11-23T06:05:05.977Z,9.85
2022-11-23T06:07:53.912Z,7.65
2022-11-23T06:10:39.641Z,7.63
2022-11-23T06:13:24.953Z,7.35
2022-11-23T06:16:10.316Z,10.73
2022-11-23T06:18:55.863Z,10.20
2022-11-23T06:21:44.981Z,9.27
2022-11-23T06:24:33.488Z,8.13
2022-11-23T06:27:19.165Z,8.23
2022-11-23T06:30:05.480Z,6.55
2022-11-23T06:32:51.475Z,16.48
2022-11-23T06:35:37.020Z,7.85
2022-11-23T06:38:22.720Z,8.18
2022-11-23T06:41:08.387Z,13.00
2022-11-23T06:43:53.928Z,13.90
2022-11-23T06:46:39.339Z,11.40
2022-11-23T06:49:26.341Z,10.10
2022-11-23T06:52:12.134Z,5.53
2022-11-23T06:54:57.716Z,8.25
2022-11-23T06:57:43.071Z,20.67
2022-11-23T07:00:28.665Z,11.80
2022-11-23T07:03:22.911Z,9.15
2022-11-23T07:06:09.992Z,11.10
2022-11-23T07:08:56.010Z,10.55
2022-11-23T07:11:41.398Z,9.05
2022-11-23T07:14:27.610Z,7.72
2022-11-23T07:17:17.296Z,11.85
2022-11-23T07:20:03.295Z,10.18
2022-11-23T07:22:48.811Z,8.35
2022-11-23T07:25:35.992Z,10.80
2022-11-23T07:28:21.824Z,7.47
2022-11-23T07:31:07.763Z,17.15
2022-11-23T07:33:53.534Z,24.60
2022-11-23T07:36:39.360Z,18.50
2022-11-23T07:39:41.879Z,8.95
2022-11-23T07:42:35.545Z,8.32
2022-11-23T07:45:25.103Z,11.47
2022-11-23T07:48:10.635Z,7.53
2022-11-23T07:50:56.037Z,7.63
2022-11-23T07:53:41.547Z,4.82
2022-11-23T07:56:26.769Z,8.38
2022-11-23T07:59:12.390Z,6.10
2022-11-23T08:01:58.670Z,9.23
2022-11-23T08:04:45.426Z,7.60
2022-11-23T08:07:31.105Z,7.43
2022-11-23T08:10:16.531Z,6.63
2022-11-23T08:13:04.494Z,5.53
2022-11-23T08:15:55.399Z,9.77
2022-11-23T08:18:42.042Z,14.20
2022-11-23T08:21:28.231Z,8.43
2022-11-23T08:24:14.071Z,8.60
2022-11-23T08:26:59.556Z,7.90
2022-11-23T08:29:44.972Z,9.02
2022-11-23T08:32:30.584Z,8.30
2022-11-23T08:35:16.016Z,11.77
2022-11-23T08:38:01.501Z,7.28
2022-11-23T08:40:46.873Z,8.63
2022-11-23T08:43:32.815Z,8.93
2022-11-23T08:46:19.678Z,7.55
2022-11-23T08:49:06.147Z,7.05
2022-11-23T08:51:51.629Z,9.82
2022-11-23T08:54:37.277Z,11.65
2022-11-23T08:57:22.682Z,12.52
2022-11-23T09:00:08.972Z,8.50
2022-11-23T09:02:54.893Z,6.43
2022-11-23T09:05:40.837Z,8.40
2022-11-23T09:08:26.311Z,8.55
2022-11-23T09:11:14.220Z,8.73
2022-11-23T09:13:59.921Z,7.95
2022-11-23T09:16:45.815Z,7.00
2022-11-23T09:19:31.672Z,9.52
2022-11-23T09:22:17.178Z,7.03
2022-11-23T09:25:02.939Z,7.38
2022-11-23T09:27:49.213Z,8.35
2022-11-23T09:30:35.512Z,7.50
2022-11-23T09:33:21.363Z,6.60
2022-11-23T09:36:07.240Z,5.00
2022-11-23T09:38:57.479Z,6.65
2022-11-23T09:42:01.815Z,5.47
2022-11-23T09:45:02.332Z,7.03
2022-11-23T09:48:08.036Z,8.52
2022-11-23T09:51:05.407Z,7.35
2022-11-23T09:53:55.618Z,4.55
2022-11-23T09:56:42.923Z,8.02
2022-11-23T09:59:43.800Z,4.60
2022-11-23T10:02:30.602Z,13.40
2022-11-23T10:05:20.260Z,5.22
2022-11-23T10:08:23.345Z,5.72
2022-11-23T10:11:20.809Z,5.78
2022-11-23T10:14:12.525Z,7.30
2022-11-23T10:17:29.491Z,6.82
2022-11-23T10:20:39.106Z,10.13
2022-11-23T10:23:36.649Z,6.82
2022-11-23T10:26:31.947Z,7.53
2022-11-23T10:29:27.623Z,9.18
2022-11-23T10:32:37.477Z,4.43
2022-11-23T10:35:32.755Z,5.93
2022-11-23T10:38:20.383Z,7.28
2022-11-23T10:41:16.679Z,7.78
2022-11-23T10:44:24.735Z,5.50
2022-11-23T10:47:10.482Z,4.80
2022-11-23T10:49:59.198Z,8.00
2022-11-23T10:52:55.113Z,5.95
2022-11-23T10:55:55.008Z,6.53
2022-11-23T10:58:45.872Z,5.32
2022-11-23T11:01:31.605Z,6.05
2022-11-23T11:04:25.739Z,6.40
2022-11-23T11:07:20.491Z,6.90
2022-11-23T11:10:06.877Z,5.50
2022-11-23T11:12:54.379Z,5.43
2022-11-23T11:15:51.321Z,10.18
2022-11-23T11:18:38.365Z,5.32
2022-11-23T11:21:33.644Z,4.22
2022-11-23T11:27:17.504Z,4.55
2022-11-23T11:30:08.066Z,5.63
2022-11-23T11:33:01.346Z,3.45
2022-11-23T11:35:51.802Z,3.85
2022-11-23T11:38:40.061Z,3.92
2022-11-23T11:41:27.955Z,4.00
2022-11-23T11:44:36.396Z,3.45
2022-11-23T11:47:21.684Z,2.90
2022-11-23T11:50:31.203Z,3.20
2022-11-23T11:53:40.265Z,3.78
2022-11-23T11:56:36.312Z,3.45
2022-11-23T11:59:42.872Z,4.40
2022-11-23T12:02:57.611Z,1.75
2022-11-23T12:05:55.440Z,4.30
2022-11-23T12:08:55.676Z,5.07
2022-11-23T12:11:41.082Z,3.65
2022-11-23T12:14:27.089Z,4.72
2022-11-23T12:17:40.876Z,3.38
2022-11-23T12:20:50.050Z,6.80
2022-11-23T12:23:59.577Z,3.10
2022-11-23T12:27:14.429Z,4.50
2022-11-23T12:33:18.415Z,3.50
2022-11-23T12:36:23.935Z,5.32
2022-11-23T12:39:54.746Z,3.70
2022-11-23T12:42:52.530Z,3.42
2022-11-23T12:45:51.914Z,5.45
2022-11-23T12:49:08.532Z,3.65
2022-11-23T12:52:03.003Z,3.40
2022-11-23T12:54:57.866Z,5.82
2022-11-23T12:57:54.042Z,4.43
2022-11-23T13:00:46.830Z,2.95
2022-11-23T13:03:46.600Z,5.28
2022-11-23T13:07:27.343Z,5.60
2022-11-23T13:10:10.999Z,4.18
2022-11-23T13:13:16.150Z,2.92
2022-11-23T13:16:07.898Z,4.70
2022-11-23T13:19:08.506Z,4.53
2022-11-23T13:21:54.370Z,4.18
2022-11-23T13:24:59.029Z,6.22
2022-11-23T13:27:50.201Z,4.28
2022-11-23T13:31:07.713Z,2.55
2022-11-23T13:33:46.094Z,3.10
2022-11-23T13:42:48.568Z,4.78
2022-11-23T13:45:36.626Z,3.85
2022-11-23T13:48:54.721Z,5.03
2022-11-23T13:51:35.618Z,3.58
2022-11-23T13:54:23.626Z,2.22
2022-11-23T13:57:13.368Z,4.88
2022-11-23T14:00:36.779Z,6.18
2022-11-23T14:03:51.285Z,4.78
2022-11-23T14:07:00.354Z,2.92
2022-11-23T14:09:58.947Z,2.78
2022-11-23T14:13:02.816Z,2.45
2022-11-23T14:15:58.840Z,3.08
2022-11-23T14:19:01.253Z,4.97
2022-11-23T14:22:03.722Z,2.83
2022-11-23T14:25:21.523Z,2.90
2022-11-23T14:28:34.402Z,3.85
2022-11-23T14:31:41.464Z,3.08
2022-11-23T14:34:44.700Z,2.72
2022-11-23T14:38:03.816Z,3.67
2022-11-23T14:41:13.012Z,2.90
2022-11-23T14:44:01.535Z,4.18
2022-11-23T14:47:03.995Z,3.72
2022-11-23T14:49:52.576Z,3.47
2022-11-23T14:52:38.534Z,3.10
2022-11-23T14:55:29.654Z,3.00
2022-11-23T14:58:15.647Z,5.57
2022-11-23T15:01:02.631Z,2.58
2022-11-23T15:04:07.135Z,4.53
2022-11-23T15:06:58.046Z,4.90
2022-11-23T15:10:05.633Z,7.13
2022-11-23T15:12:51.314Z,4.15
2022-11-23T15:15:39.490Z,2.95
2022-11-23T15:18:34.987Z,2.85
2022-11-23T15:21:27.325Z,2.33
2022-11-23T15:24:23.511Z,4.55
2022-11-23T15:30:00.682Z,4.10
2022-11-23T15:33:01.427Z,4.13
2022-11-23T15:35:48.249Z,2.25
2022-11-23T15:38:34.105Z,3.42
2022-11-23T15:41:19.803Z,4.25
2022-11-23T15:44:19.021Z,3.55
2022-11-23T15:47:07.073Z,3.97
2022-11-23T15:50:01.241Z,2.88
2022-11-23T15:52:46.780Z,3.15
2022-11-23T15:55:32.336Z,3.30
2022-11-23T15:58:20.392Z,3.20
2022-11-23T16:01:07.882Z,1.55
2022-11-23T16:03:55.739Z,1.95
2022-11-23T16:06:49.926Z,2.25
2022-11-23T16:09:51.183Z,3.03
2022-11-23T16:12:49.987Z,3.63
2022-11-23T16:15:38.566Z,1.63
2022-11-23T16:18:25.870Z,3.42
2022-11-23T16:21:17.074Z,3.72
2022-11-23T16:24:02.563Z,3.72
2022-11-23T16:26:48.056Z,3.40
2022-11-23T16:29:36.794Z,3.33
2022-11-23T16:32:26.618Z,3.92
2022-11-23T16:35:18.088Z,4.55
2022-11-23T16:38:03.808Z,4.10
2022-11-23T16:40:49.562Z,4.60
2022-11-23T16:43:36.716Z,3.72
2022-11-23T16:46:24.216Z,1.70
2022-11-23T16:49:16.456Z,3.92
2022-11-23T16:52:02.253Z,2.40
2022-11-23T16:54:47.831Z,4.63
2022-11-23T16:57:35.183Z,4.00
2022-11-23T17:00:22.756Z,4.55
2022-11-23T17:03:14.643Z,4.72
2022-11-23T17:06:00.191Z,2.30
2022-11-23T17:08:45.994Z,4.50
2022-11-23T17:11:31.882Z,3.17
2022-11-23T17:14:19.267Z,4.70
2022-11-23T17:17:05.538Z,3.45
2022-11-23T17:19:51.700Z,6.43
2022-11-23T17:22:37.039Z,3.05
2022-11-23T17:25:22.560Z,4.63
2022-11-23T17:28:15.560Z,5.15
2022-11-23T17:31:01.838Z,3.15
2022-11-23T17:33:47.495Z,3.95
2022-11-23T17:36:33.552Z,7.00
2022-11-23T17:39:25.132Z,3.65
2022-11-23T17:42:14.128Z,5.32
2022-11-23T17:44:59.723Z,4.95
2022-11-23T17:47:45.933Z,4.28
2022-11-23T17:50:31.490Z,5.93
2022-11-23T17:53:21.256Z,5.65
2022-11-23T17:56:17.645Z,4.03
2022-11-23T17:59:03.091Z,4.25
2022-11-23T18:01:49.275Z,3.92
2022-11-23T18:04:34.927Z,4.03
2022-11-23T18:07:20.320Z,4.72
2022-11-23T18:10:06.459Z,5.20
2022-11-23T18:12:52.045Z,6.30
2022-11-23T18:15:37.545Z,4.60
2022-11-23T18:18:23.933Z,4.75
2022-11-23T18:21:10.859Z,7.38
2022-11-23T18:24:01.459Z,6.13
2022-11-23T18:26:50.177Z,5.88
2022-11-23T18:29:36.607Z,5.53
2022-11-23T18:32:21.974Z,6.18
2022-11-23T18:35:08.126Z,7.32
2022-11-23T18:37:53.587Z,7.15
2022-11-23T18:40:38.929Z,5.50
2022-11-23T18:43:24.422Z,7.10
2022-11-23T18:46:11.024Z,6.88
2022-11-23T18:48:57.512Z,5.15
2022-11-23T18:51:43.163Z,7.78
2022-11-23T18:54:28.416Z,18.00
2022-11-23T18:57:16.814Z,12.15
2022-11-23T19:00:03.222Z,5.53
2022-11-23T19:02:57.501Z,3.90
2022-11-23T19:05:43.086Z,6.03
2022-11-23T19:08:28.703Z,4.32
2022-11-23T19:11:22.467Z,6.38
2022-11-23T19:14:09.422Z,4.97
2022-11-23T19:16:54.672Z,4.00
2022-11-23T19:19:40.060Z,4.38
2022-11-23T19:22:25.521Z,4.95
2022-11-23T19:25:11.038Z,4.90
2022-11-23T19:27:57.080Z,5.10
2022-11-23T19:30:42.571Z,4.72
2022-11-23T19:33:29.869Z,4.60
2022-11-23T19:36:18.409Z,4.57
2022-11-23T19:39:08.436Z,6.60
2022-11-23T19:41:53.642Z,4.88
2022-11-23T19:44:39.314Z,4.57
2022-11-23T19:47:24.766Z,4.60
2022-11-23T19:50:10.392Z,6.10
2022-11-23T19:53:11.960Z,6.43
2022-11-23T19:56:06.744Z,4.45
2022-11-23T19:58:53.813Z,5.25
2022-11-23T20:01:39.345Z,3.10
2022-11-23T20:04:24.926Z,3.55
2022-11-23T20:07:12.369Z,4.85
2022-11-23T20:09:57.971Z,3.95
2022-11-23T20:12:43.516Z,5.18
2022-11-23T20:15:29.080Z,4.15
2022-11-23T20:18:18.456Z,3.10
2022-11-23T20:21:04.021Z,4.65
2022-11-23T20:23:54.138Z,5.32
2022-11-23T20:26:41.258Z,4.43
2022-11-23T20:29:27.894Z,4.40
2022-11-23T20:32:14.047Z,3.63
2022-11-23T20:34:59.426Z,4.20
2022-11-23T20:37:44.952Z,5.07
2022-11-23T20:40:30.501Z,7.45
2022-11-23T20:43:15.916Z,7.70
2022-11-23T20:46:01.480Z,6.32
2022-11-23T20:48:46.909Z,7.18
2022-11-23T20:51:32.264Z,6.93
2022-11-23T20:54:17.825Z,5.70
2022-11-23T20:57:04.103Z,5.47
2022-11-23T20:59:50.212Z,7.25
2022-11-23T21:02:35.838Z,6.22
2022-11-23T21:05:21.572Z,4.90
2022-11-23T21:08:11.326Z,6.82
2022-11-23T21:11:22.705Z,8.65
2022-11-23T21:14:17.420Z,9.85
2022-11-23T21:17:03.614Z,6.13
2022-11-23T21:19:49.964Z,4.70
2022-11-23T21:22:36.035Z,8.60
2022-11-23T21:25:21.643Z,8.55
2022-11-23T21:28:06.929Z,7.35
2022-11-23T21:30:52.519Z,9.05
2022-11-23T21:33:38.222Z,6.47
2022-11-23T21:36:24.075Z,8.70
2022-11-23T21:39:11.210Z,6.22
2022-11-23T21:41:56.719Z,7.97
2022-11-23T21:44:42.304Z,6.93
2022-11-23T21:47:28.976Z,6.78
2022-11-23T21:50:14.595Z,6.57
2022-11-23T21:52:59.990Z,5.97
2022-11-23T21:55:45.664Z,6.10
2022-11-23T21:58:31.762Z,7.88
2022-11-23T22:01:23.473Z,8.27
2022-11-23T22:04:15.340Z,8.93
2022-11-23T22:07:01.022Z,10.77
2022-11-23T22:09:46.668Z,9.40
2022-11-23T22:12:32.226Z,7.00
2022-11-23T22:15:17.701Z,5.95
2022-11-23T22:18:03.064Z,5.50
2022-11-23T22:20:48.631Z,6.60
2022-11-23T22:23:34.008Z,7.18
2022-11-23T22:26:21.043Z,7.03
2022-11-23T22:29:06.762Z,7.97
2022-11-23T22:31:52.549Z,7.38
2022-11-23T22:34:39.987Z,10.00
2022-11-23T22:37:25.296Z,10.05
2022-11-23T22:40:11.390Z,10.70
2022-11-23T22:42:56.875Z,10.55
2022-11-23T22:45:42.361Z,7.88
2022-11-23T22:48:27.817Z,5.72
2022-11-23T22:51:17.242Z,10.93
2022-11-23T22:54:02.736Z,8.82
2022-11-23T22:56:48.119Z,8.57
2022-11-23T22:59:33.513Z,9.60
2022-11-23T23:02:18.942Z,11.43
2022-11-23T23:05:04.636Z,11.43
2022-11-23T23:07:50.510Z,9.73
2022-11-23T23:10:36.650Z,9.05
2022-11-23T23:13:22.734Z,6.07
2022-11-23T23:16:11.849Z,12.10
2022-11-23T23:18:58.490Z,9.77
2022-11-23T23:21:44.733Z,12.52
2022-11-23T23:24:30.777Z,10.32
2022-11-23T23:27:17.119Z,7.15
2022-11-23T23:30:03.310Z,12.27
2022-11-23T23:32:48.882Z,7.93
2022-11-23T23:35:35.722Z,10.75
2022-11-23T23:38:21.243Z,9.30
2022-11-23T23:41:07.600Z,9.77
2022-11-23T23:43:53.257Z,9.90
2022-11-23T23:46:38.637Z,11.80
2022-11-23T23:49:24.617Z,8.63
2022-11-23T23:52:10.108Z,10.15
2022-11-23T23:54:55.736Z,8.70
2022-11-23T23:57:41.173Z,8.77
